sensor_id;sensor_type;location;lat;lon;timestamp;P1;durP1;ratioP1;P2;durP2;ratioP2
6019;SDS011;3038;51.122;6.840;2022-10-29T00:00:48;16.70;;;12.83;;
6019;SDS011;3038;51.122;6.840;2022-10-29T00:03:15;20.23;;;12.83;;
6019;SDS011;3038;51.122;6.840;2022-10-29T00:05:40;21.70;;;15.47;;
6019;SDS011;3038;51.122;6.840;2022-10-29T00:08:05;20.60;;;13.73;;
6019;SDS011;3038;51.122;6.840;2022-10-29T00:10:31;19.80;;;13.30;;
6019;SDS011;3038;51.122;6.840;2022-10-29T00:12:59;14.77;;;12.47;;
6019;SDS011;3038;51.122;6.840;2022-10-29T00:15:26;22.23;;;14.53;;
6019;SDS011;3038;51.122;6.840;2022-10-29T00:17:51;19.10;;;13.00;;
6019;SDS011;3038;51.122;6.840;2022-10-29T00:20:17;20.77;;;13.70;;
6019;SDS011;3038;51.122;6.840;2022-10-29T00:22:44;15.67;;;12.13;;
6019;SDS011;3038;51.122;6.840;2022-10-29T00:25:10;22.80;;;14.53;;
6019;SDS011;3038;51.122;6.840;2022-10-29T00:27:35;12.90;;;11.63;;
6019;SDS011;3038;51.122;6.840;2022-10-29T00:30:01;18.83;;;13.40;;
6019;SDS011;3038;51.122;6.840;2022-10-29T00:32:26;18.70;;;13.43;;
6019;SDS011;3038;51.122;6.840;2022-10-29T00:34:51;14.73;;;12.13;;
6019;SDS011;3038;51.122;6.840;2022-10-29T00:37:17;19.57;;;15.47;;
6019;SDS011;3038;51.122;6.840;2022-10-29T00:39:42;15.87;;;12.80;;
6019;SDS011;3038;51.122;6.840;2022-10-29T00:42:12;18.47;;;13.40;;
6019;SDS011;3038;51.122;6.840;2022-10-29T00:44:39;19.57;;;13.17;;
6019;SDS011;3038;51.122;6.840;2022-10-29T00:49:50;16.17;;;13.03;;
6019;SDS011;3038;51.122;6.840;2022-10-29T00:52:20;16.77;;;13.67;;
6019;SDS011;3038;51.122;6.840;2022-10-29T00:54:47;27.10;;;13.10;;
6019;SDS011;3038;51.122;6.840;2022-10-29T00:57:17;17.07;;;13.13;;
6019;SDS011;3038;51.122;6.840;2022-10-29T00:59:46;16.33;;;13.10;;
6019;SDS011;3038;51.122;6.840;2022-10-29T01:02:13;14.83;;;11.57;;
6019;SDS011;3038;51.122;6.840;2022-10-29T01:04:39;17.83;;;13.00;;
6019;SDS011;3038;51.122;6.840;2022-10-29T01:07:06;17.27;;;14.30;;
6019;SDS011;3038;51.122;6.840;2022-10-29T01:09:32;19.87;;;13.40;;
6019;SDS011;3038;51.122;6.840;2022-10-29T01:28:37;20.10;;;13.10;;
6019;SDS011;3038;51.122;6.840;2022-10-29T01:31:38;22.13;;;13.93;;
6019;SDS011;3038;51.122;6.840;2022-10-29T01:34:27;18.67;;;13.23;;
6019;SDS011;3038;51.122;6.840;2022-10-29T01:36:56;18.33;;;12.73;;
6019;SDS011;3038;51.122;6.840;2022-10-29T01:39:29;17.47;;;12.53;;
6019;SDS011;3038;51.122;6.840;2022-10-29T01:45:16;20.23;;;13.77;;
6019;SDS011;3038;51.122;6.840;2022-10-29T01:47:39;20.20;;;13.20;;
6019;SDS011;3038;51.122;6.840;2022-10-29T01:50:09;19.20;;;12.50;;
6019;SDS011;3038;51.122;6.840;2022-10-29T01:52:39;18.50;;;12.47;;
6019;SDS011;3038;51.122;6.840;2022-10-29T01:55:05;17.97;;;13.47;;
6019;SDS011;3038;51.122;6.840;2022-10-29T01:57:32;18.33;;;14.00;;
6019;SDS011;3038;51.122;6.840;2022-10-29T02:00:04;19.03;;;13.83;;
6019;SDS011;3038;51.122;6.840;2022-10-29T02:02:44;20.30;;;12.80;;
6019;SDS011;3038;51.122;6.840;2022-10-29T02:05:21;16.50;;;12.73;;
6019;SDS011;3038;51.122;6.840;2022-10-29T02:07:56;18.20;;;12.80;;
6019;SDS011;3038;51.122;6.840;2022-10-29T02:13:02;16.77;;;12.97;;
6019;SDS011;3038;51.122;6.840;2022-10-29T02:15:34;22.13;;;13.93;;
6019;SDS011;3038;51.122;6.840;2022-10-29T02:18:06;19.43;;;12.77;;
6019;SDS011;3038;51.122;6.840;2022-10-29T02:20:32;16.40;;;12.90;;
6019;SDS011;3038;51.122;6.840;2022-10-29T02:22:58;17.50;;;12.47;;
6019;SDS011;3038;51.122;6.840;2022-10-29T02:25:25;22.33;;;13.13;;
6019;SDS011;3038;51.122;6.840;2022-10-29T02:27:51;15.87;;;12.17;;
6019;SDS011;3038;51.122;6.840;2022-10-29T02:30:16;16.20;;;13.20;;
6019;SDS011;3038;51.122;6.840;2022-10-29T02:32:41;16.30;;;12.33;;
6019;SDS011;3038;51.122;6.840;2022-10-29T02:35:07;16.77;;;12.70;;
6019;SDS011;3038;51.122;6.840;2022-10-29T02:37:33;17.37;;;14.23;;
6019;SDS011;3038;51.122;6.840;2022-10-29T02:39:58;17.63;;;13.10;;
6019;SDS011;3038;51.122;6.840;2022-10-29T02:42:24;14.80;;;13.30;;
6019;SDS011;3038;51.122;6.840;2022-10-29T02:44:49;20.03;;;14.30;;
6019;SDS011;3038;51.122;6.840;2022-10-29T02:47:15;21.30;;;13.23;;
6019;SDS011;3038;51.122;6.840;2022-10-29T02:49:40;19.53;;;13.17;;
6019;SDS011;3038;51.122;6.840;2022-10-29T02:52:06;20.90;;;14.60;;
6019;SDS011;3038;51.122;6.840;2022-10-29T02:54:31;17.37;;;12.50;;
6019;SDS011;3038;51.122;6.840;2022-10-29T02:56:56;16.37;;;12.80;;
6019;SDS011;3038;51.122;6.840;2022-10-29T02:59:22;18.13;;;12.20;;
6019;SDS011;3038;51.122;6.840;2022-10-29T03:01:47;18.23;;;12.27;;
6019;SDS011;3038;51.122;6.840;2022-10-29T03:04:13;19.63;;;12.37;;
6019;SDS011;3038;51.122;6.840;2022-10-29T03:06:38;21.10;;;12.33;;
6019;SDS011;3038;51.122;6.840;2022-10-29T03:09:04;19.83;;;14.10;;
6019;SDS011;3038;51.122;6.840;2022-10-29T03:11:29;20.07;;;14.23;;
6019;SDS011;3038;51.122;6.840;2022-10-29T03:13:54;21.20;;;12.63;;
6019;SDS011;3038;51.122;6.840;2022-10-29T03:16:20;17.07;;;12.87;;
6019;SDS011;3038;51.122;6.840;2022-10-29T03:18:45;12.70;;;11.40;;
6019;SDS011;3038;51.122;6.840;2022-10-29T03:21:11;17.73;;;12.30;;
6019;SDS011;3038;51.122;6.840;2022-10-29T03:23:36;14.47;;;10.63;;
6019;SDS011;3038;51.122;6.840;2022-10-29T03:26:02;19.53;;;10.83;;
6019;SDS011;3038;51.122;6.840;2022-10-29T03:28:27;15.57;;;12.83;;
6019;SDS011;3038;51.122;6.840;2022-10-29T03:30:54;19.50;;;12.30;;
6019;SDS011;3038;51.122;6.840;2022-10-29T03:33:20;20.63;;;11.10;;
6019;SDS011;3038;51.122;6.840;2022-10-29T03:35:45;19.43;;;12.57;;
6019;SDS011;3038;51.122;6.840;2022-10-29T03:38:11;15.53;;;10.50;;
6019;SDS011;3038;51.122;6.840;2022-10-29T03:40:36;22.53;;;10.93;;
6019;SDS011;3038;51.122;6.840;2022-10-29T03:43:02;14.30;;;11.37;;
6019;SDS011;3038;51.122;6.840;2022-10-29T03:45:27;16.90;;;10.90;;
6019;SDS011;3038;51.122;6.840;2022-10-29T03:47:52;18.00;;;10.10;;
6019;SDS011;3038;51.122;6.840;2022-10-29T03:50:18;22.10;;;11.20;;
6019;SDS011;3038;51.122;6.840;2022-10-29T03:52:43;20.17;;;12.40;;
6019;SDS011;3038;51.122;6.840;2022-10-29T03:55:08;24.40;;;11.90;;
6019;SDS011;3038;51.122;6.840;2022-10-29T03:57:34;23.20;;;12.73;;
6019;SDS011;3038;51.122;6.840;2022-10-29T03:59:59;17.40;;;11.60;;
6019;SDS011;3038;51.122;6.840;2022-10-29T04:02:25;14.60;;;10.20;;
6019;SDS011;3038;51.122;6.840;2022-10-29T04:04:51;19.90;;;11.80;;
6019;SDS011;3038;51.122;6.840;2022-10-29T04:07:16;20.07;;;11.43;;
6019;SDS011;3038;51.122;6.840;2022-10-29T04:09:42;16.00;;;10.93;;
6019;SDS011;3038;51.122;6.840;2022-10-29T04:12:07;16.27;;;11.07;;
6019;SDS011;3038;51.122;6.840;2022-10-29T04:14:33;15.00;;;11.03;;
6019;SDS011;3038;51.122;6.840;2022-10-29T04:16:58;13.00;;;10.90;;
6019;SDS011;3038;51.122;6.840;2022-10-29T04:19:23;14.33;;;10.50;;
6019;SDS011;3038;51.122;6.840;2022-10-29T04:21:49;20.90;;;11.93;;
6019;SDS011;3038;51.122;6.840;2022-10-29T04:24:14;13.60;;;10.97;;
6019;SDS011;3038;51.122;6.840;2022-10-29T04:26:43;16.73;;;11.23;;
6019;SDS011;3038;51.122;6.840;2022-10-29T04:29:08;12.90;;;10.53;;
6019;SDS011;3038;51.122;6.840;2022-10-29T04:31:35;17.10;;;12.33;;
6019;SDS011;3038;51.122;6.840;2022-10-29T04:34:01;17.30;;;10.63;;
6019;SDS011;3038;51.122;6.840;2022-10-29T04:36:27;14.07;;;10.87;;
6019;SDS011;3038;51.122;6.840;2022-10-29T04:38:52;15.13;;;11.13;;
6019;SDS011;3038;51.122;6.840;2022-10-29T04:41:18;18.60;;;10.33;;
6019;SDS011;3038;51.122;6.840;2022-10-29T04:43:43;21.37;;;11.77;;
6019;SDS011;3038;51.122;6.840;2022-10-29T04:46:09;12.27;;;10.27;;
6019;SDS011;3038;51.122;6.840;2022-10-29T04:48:35;16.67;;;11.90;;
6019;SDS011;3038;51.122;6.840;2022-10-29T04:51:00;21.53;;;11.60;;
6019;SDS011;3038;51.122;6.840;2022-10-29T04:53:26;15.07;;;10.20;;
6019;SDS011;3038;51.122;6.840;2022-10-29T04:55:57;16.10;;;12.77;;
6019;SDS011;3038;51.122;6.840;2022-10-29T04:58:25;23.87;;;11.20;;
6019;SDS011;3038;51.122;6.840;2022-10-29T05:00:51;18.57;;;11.23;;
6019;SDS011;3038;51.122;6.840;2022-10-29T05:03:17;21.57;;;12.13;;
6019;SDS011;3038;51.122;6.840;2022-10-29T05:05:42;16.10;;;11.27;;
6019;SDS011;3038;51.122;6.840;2022-10-29T05:08:08;17.03;;;10.93;;
6019;SDS011;3038;51.122;6.840;2022-10-29T05:10:35;17.87;;;11.70;;
6019;SDS011;3038;51.122;6.840;2022-10-29T05:13:03;21.83;;;11.40;;
6019;SDS011;3038;51.122;6.840;2022-10-29T05:15:31;17.53;;;12.50;;
6019;SDS011;3038;51.122;6.840;2022-10-29T05:17:56;13.03;;;10.00;;
6019;SDS011;3038;51.122;6.840;2022-10-29T05:20:22;18.30;;;10.97;;
6019;SDS011;3038;51.122;6.840;2022-10-29T05:22:48;16.63;;;11.20;;
6019;SDS011;3038;51.122;6.840;2022-10-29T05:25:14;19.43;;;11.90;;
6019;SDS011;3038;51.122;6.840;2022-10-29T05:27:40;16.23;;;10.80;;
6019;SDS011;3038;51.122;6.840;2022-10-29T05:30:06;17.40;;;10.77;;
6019;SDS011;3038;51.122;6.840;2022-10-29T05:32:32;19.90;;;11.43;;
6019;SDS011;3038;51.122;6.840;2022-10-29T05:34:57;11.87;;;10.47;;
6019;SDS011;3038;51.122;6.840;2022-10-29T05:37:23;18.20;;;11.73;;
6019;SDS011;3038;51.122;6.840;2022-10-29T05:39:54;16.20;;;11.10;;
6019;SDS011;3038;51.122;6.840;2022-10-29T05:42:19;12.83;;;10.67;;
6019;SDS011;3038;51.122;6.840;2022-10-29T05:44:45;14.27;;;10.97;;
6019;SDS011;3038;51.122;6.840;2022-10-29T05:47:10;14.40;;;9.87;;
6019;SDS011;3038;51.122;6.840;2022-10-29T05:49:35;16.37;;;11.60;;
6019;SDS011;3038;51.122;6.840;2022-10-29T05:52:01;17.53;;;10.70;;
6019;SDS011;3038;51.122;6.840;2022-10-29T05:54:26;15.50;;;11.00;;
6019;SDS011;3038;51.122;6.840;2022-10-29T05:56:51;17.87;;;11.87;;
6019;SDS011;3038;51.122;6.840;2022-10-29T05:59:17;13.27;;;11.20;;
6019;SDS011;3038;51.122;6.840;2022-10-29T06:01:42;19.40;;;11.50;;
6019;SDS011;3038;51.122;6.840;2022-10-29T06:04:07;18.23;;;12.23;;
6019;SDS011;3038;51.122;6.840;2022-10-29T06:06:33;18.13;;;10.43;;
6019;SDS011;3038;51.122;6.840;2022-10-29T06:08:58;14.80;;;10.87;;
6019;SDS011;3038;51.122;6.840;2022-10-29T06:11:24;20.77;;;10.07;;
6019;SDS011;3038;51.122;6.840;2022-10-29T06:13:49;18.20;;;11.03;;
6019;SDS011;3038;51.122;6.840;2022-10-29T06:16:18;18.47;;;11.40;;
6019;SDS011;3038;51.122;6.840;2022-10-29T06:18:43;14.07;;;10.33;;
6019;SDS011;3038;51.122;6.840;2022-10-29T06:21:09;18.13;;;11.20;;
6019;SDS011;3038;51.122;6.840;2022-10-29T06:23:34;14.27;;;11.30;;
6019;SDS011;3038;51.122;6.840;2022-10-29T06:25:59;15.07;;;12.80;;
6019;SDS011;3038;51.122;6.840;2022-10-29T06:28:25;11.63;;;10.53;;
6019;SDS011;3038;51.122;6.840;2022-10-29T06:30:51;17.37;;;11.43;;
6019;SDS011;3038;51.122;6.840;2022-10-29T06:33:17;16.17;;;9.90;;
6019;SDS011;3038;51.122;6.840;2022-10-29T06:35:42;18.47;;;10.60;;
6019;SDS011;3038;51.122;6.840;2022-10-29T06:38:08;13.73;;;9.63;;
6019;SDS011;3038;51.122;6.840;2022-10-29T06:40:34;12.03;;;10.63;;
6019;SDS011;3038;51.122;6.840;2022-10-29T06:43:03;17.00;;;11.63;;
6019;SDS011;3038;51.122;6.840;2022-10-29T06:45:30;14.83;;;11.57;;
6019;SDS011;3038;51.122;6.840;2022-10-29T06:47:57;21.70;;;14.30;;
6019;SDS011;3038;51.122;6.840;2022-10-29T06:50:22;25.63;;;20.30;;
6019;SDS011;3038;51.122;6.840;2022-10-29T06:52:55;25.77;;;23.07;;
6019;SDS011;3038;51.122;6.840;2022-10-29T06:55:20;26.40;;;20.90;;
6019;SDS011;3038;51.122;6.840;2022-10-29T06:57:45;32.40;;;21.37;;
6019;SDS011;3038;51.122;6.840;2022-10-29T07:00:11;29.47;;;21.43;;
6019;SDS011;3038;51.122;6.840;2022-10-29T07:02:37;25.67;;;18.57;;
6019;SDS011;3038;51.122;6.840;2022-10-29T07:05:02;24.93;;;17.20;;
6019;SDS011;3038;51.122;6.840;2022-10-29T07:07:27;20.13;;;16.43;;
6019;SDS011;3038;51.122;6.840;2022-10-29T07:09:53;24.00;;;16.40;;
6019;SDS011;3038;51.122;6.840;2022-10-29T07:12:18;25.20;;;15.43;;
6019;SDS011;3038;51.122;6.840;2022-10-29T07:14:44;16.67;;;14.27;;
6019;SDS011;3038;51.122;6.840;2022-10-29T07:17:09;21.70;;;15.50;;
6019;SDS011;3038;51.122;6.840;2022-10-29T07:19:34;19.67;;;13.10;;
6019;SDS011;3038;51.122;6.840;2022-10-29T07:22:00;16.50;;;11.87;;
6019;SDS011;3038;51.122;6.840;2022-10-29T07:24:25;17.13;;;10.63;;
6019;SDS011;3038;51.122;6.840;2022-10-29T07:26:50;18.10;;;10.83;;
6019;SDS011;3038;51.122;6.840;2022-10-29T07:29:16;21.93;;;12.20;;
6019;SDS011;3038;51.122;6.840;2022-10-29T07:31:41;14.80;;;11.53;;
6019;SDS011;3038;51.122;6.840;2022-10-29T07:34:06;21.50;;;13.60;;
6019;SDS011;3038;51.122;6.840;2022-10-29T07:36:32;20.00;;;12.63;;
6019;SDS011;3038;51.122;6.840;2022-10-29T07:38:57;15.67;;;13.47;;
6019;SDS011;3038;51.122;6.840;2022-10-29T07:41:22;16.80;;;11.70;;
6019;SDS011;3038;51.122;6.840;2022-10-29T07:43:48;16.03;;;11.93;;
6019;SDS011;3038;51.122;6.840;2022-10-29T07:46:14;16.53;;;12.20;;
6019;SDS011;3038;51.122;6.840;2022-10-29T07:48:39;23.70;;;13.27;;
6019;SDS011;3038;51.122;6.840;2022-10-29T07:51:05;17.00;;;10.50;;
6019;SDS011;3038;51.122;6.840;2022-10-29T07:53:30;16.33;;;10.20;;
6019;SDS011;3038;51.122;6.840;2022-10-29T07:55:56;19.07;;;9.77;;
6019;SDS011;3038;51.122;6.840;2022-10-29T07:58:22;15.23;;;10.20;;
6019;SDS011;3038;51.122;6.840;2022-10-29T08:00:48;17.33;;;9.43;;
6019;SDS011;3038;51.122;6.840;2022-10-29T08:03:14;15.13;;;10.33;;
6019;SDS011;3038;51.122;6.840;2022-10-29T08:05:39;20.40;;;10.03;;
6019;SDS011;3038;51.122;6.840;2022-10-29T08:08:05;19.57;;;9.60;;
6019;SDS011;3038;51.122;6.840;2022-10-29T08:10:32;16.30;;;9.37;;
6019;SDS011;3038;51.122;6.840;2022-10-29T08:13:00;15.33;;;10.43;;
6019;SDS011;3038;51.122;6.840;2022-10-29T08:15:27;12.87;;;9.40;;
6019;SDS011;3038;51.122;6.840;2022-10-29T08:17:54;14.40;;;9.03;;
6019;SDS011;3038;51.122;6.840;2022-10-29T08:20:20;18.50;;;9.70;;
6019;SDS011;3038;51.122;6.840;2022-10-29T08:22:47;10.97;;;8.90;;
6019;SDS011;3038;51.122;6.840;2022-10-29T08:25:13;15.23;;;10.30;;
6019;SDS011;3038;51.122;6.840;2022-10-29T08:27:39;23.83;;;10.97;;
6019;SDS011;3038;51.122;6.840;2022-10-29T08:30:05;18.93;;;11.10;;
6019;SDS011;3038;51.122;6.840;2022-10-29T08:32:31;19.07;;;13.70;;
6019;SDS011;3038;51.122;6.840;2022-10-29T08:34:57;23.00;;;18.30;;
6019;SDS011;3038;51.122;6.840;2022-10-29T08:37:22;26.63;;;23.83;;
6019;SDS011;3038;51.122;6.840;2022-10-29T08:39:47;36.27;;;27.80;;
6019;SDS011;3038;51.122;6.840;2022-10-29T08:47:44;25.13;;;19.80;;
6019;SDS011;3038;51.122;6.840;2022-10-29T08:52:45;22.37;;;15.17;;
6019;SDS011;3038;51.122;6.840;2022-10-29T08:55:45;21.60;;;13.90;;
6019;SDS011;3038;51.122;6.840;2022-10-29T08:58:51;16.50;;;11.60;;
6019;SDS011;3038;51.122;6.840;2022-10-29T09:00:58;18.63;;;10.90;;
6019;SDS011;3038;51.122;6.840;2022-10-29T09:03:25;19.57;;;10.60;;
6019;SDS011;3038;51.122;6.840;2022-10-29T09:17:09;15.40;;;8.70;;
6019;SDS011;3038;51.122;6.840;2022-10-29T09:19:40;14.57;;;8.47;;
6019;SDS011;3038;51.122;6.840;2022-10-29T09:27:20;13.97;;;8.70;;
6019;SDS011;3038;51.122;6.840;2022-10-29T09:36:07;15.33;;;8.27;;
6019;SDS011;3038;51.122;6.840;2022-10-29T09:38:31;12.53;;;8.53;;
6019;SDS011;3038;51.122;6.840;2022-10-29T09:41:00;11.97;;;8.43;;
6019;SDS011;3038;51.122;6.840;2022-10-29T09:43:38;17.20;;;9.00;;
6019;SDS011;3038;51.122;6.840;2022-10-29T09:46:17;16.90;;;9.37;;
6019;SDS011;3038;51.122;6.840;2022-10-29T09:48:57;11.50;;;7.80;;
6019;SDS011;3038;51.122;6.840;2022-10-29T09:54:26;12.90;;;7.97;;
6019;SDS011;3038;51.122;6.840;2022-10-29T09:56:53;15.80;;;7.87;;
6019;SDS011;3038;51.122;6.840;2022-10-29T10:01:59;14.77;;;9.43;;
6019;SDS011;3038;51.122;6.840;2022-10-29T10:04:33;15.70;;;8.00;;
6019;SDS011;3038;51.122;6.840;2022-10-29T10:07:11;14.87;;;8.33;;
6019;SDS011;3038;51.122;6.840;2022-10-29T10:09:48;18.00;;;8.23;;
6019;SDS011;3038;51.122;6.840;2022-10-29T10:12:14;15.63;;;7.93;;
6019;SDS011;3038;51.122;6.840;2022-10-29T10:14:40;11.97;;;8.60;;
6019;SDS011;3038;51.122;6.840;2022-10-29T10:17:05;16.00;;;8.60;;
6019;SDS011;3038;51.122;6.840;2022-10-29T10:19:31;13.47;;;7.93;;
6019;SDS011;3038;51.122;6.840;2022-10-29T10:21:58;15.17;;;8.03;;
6019;SDS011;3038;51.122;6.840;2022-10-29T10:24:32;13.23;;;8.30;;
6019;SDS011;3038;51.122;6.840;2022-10-29T10:27:00;18.93;;;8.47;;
6019;SDS011;3038;51.122;6.840;2022-10-29T10:29:26;19.77;;;8.30;;
6019;SDS011;3038;51.122;6.840;2022-10-29T10:34:20;13.10;;;7.97;;
6019;SDS011;3038;51.122;6.840;2022-10-29T10:36:50;16.73;;;7.80;;
6019;SDS011;3038;51.122;6.840;2022-10-29T10:39:19;16.87;;;7.87;;
6019;SDS011;3038;51.122;6.840;2022-10-29T10:41:50;12.30;;;8.43;;
6019;SDS011;3038;51.122;6.840;2022-10-29T10:44:16;11.80;;;7.57;;
6019;SDS011;3038;51.122;6.840;2022-10-29T10:46:44;12.67;;;7.90;;
6019;SDS011;3038;51.122;6.840;2022-10-29T10:51:43;13.67;;;8.00;;
6019;SDS011;3038;51.122;6.840;2022-10-29T10:57:14;15.30;;;8.87;;
6019;SDS011;3038;51.122;6.840;2022-10-29T10:59:56;15.33;;;8.00;;
6019;SDS011;3038;51.122;6.840;2022-10-29T11:05:23;9.10;;;7.23;;
6019;SDS011;3038;51.122;6.840;2022-10-29T11:07:57;14.00;;;8.13;;
6019;SDS011;3038;51.122;6.840;2022-10-29T11:10:26;13.67;;;8.27;;
6019;SDS011;3038;51.122;6.840;2022-10-29T11:12:59;13.37;;;7.87;;
6019;SDS011;3038;51.122;6.840;2022-10-29T11:15:32;19.10;;;7.53;;
6019;SDS011;3038;51.122;6.840;2022-10-29T11:18:13;16.47;;;8.07;;
6019;SDS011;3038;51.122;6.840;2022-10-29T11:21:04;9.40;;;7.47;;
6019;SDS011;3038;51.122;6.840;2022-10-29T11:23:51;10.90;;;7.00;;
6019;SDS011;3038;51.122;6.840;2022-10-29T11:26:34;12.87;;;8.57;;
6019;SDS011;3038;51.122;6.840;2022-10-29T11:29:07;14.60;;;7.63;;
6019;SDS011;3038;51.122;6.840;2022-10-29T11:31:54;17.37;;;8.73;;
6019;SDS011;3038;51.122;6.840;2022-10-29T11:37:04;13.47;;;8.10;;
6019;SDS011;3038;51.122;6.840;2022-10-29T11:39:44;13.80;;;7.33;;
6019;SDS011;3038;51.122;6.840;2022-10-29T11:42:34;11.13;;;7.30;;
6019;SDS011;3038;51.122;6.840;2022-10-29T11:45:00;10.30;;;6.43;;
6019;SDS011;3038;51.122;6.840;2022-10-29T11:53:23;12.73;;;7.63;;
6019;SDS011;3038;51.122;6.840;2022-10-29T12:01:20;11.23;;;7.90;;
6019;SDS011;3038;51.122;6.840;2022-10-29T12:06:40;16.00;;;8.83;;
6019;SDS011;3038;51.122;6.840;2022-10-29T12:12:09;11.43;;;8.00;;
6019;SDS011;3038;51.122;6.840;2022-10-29T12:17:34;18.03;;;8.07;;
6019;SDS011;3038;51.122;6.840;2022-10-29T12:37:16;12.87;;;8.00;;
6019;SDS011;3038;51.122;6.840;2022-10-29T12:39:59;13.73;;;8.00;;
6019;SDS011;3038;51.122;6.840;2022-10-29T12:42:30;12.73;;;7.80;;
6019;SDS011;3038;51.122;6.840;2022-10-29T12:55:45;15.57;;;7.37;;
6019;SDS011;3038;51.122;6.840;2022-10-29T13:09:20;8.73;;;6.93;;
6019;SDS011;3038;51.122;6.840;2022-10-29T13:11:48;12.63;;;7.07;;
6019;SDS011;3038;51.122;6.840;2022-10-29T13:16:55;10.60;;;7.13;;
6019;SDS011;3038;51.122;6.840;2022-10-29T13:19:45;10.53;;;7.40;;
6019;SDS011;3038;51.122;6.840;2022-10-29T13:24:39;14.20;;;7.10;;
6019;SDS011;3038;51.122;6.840;2022-10-29T13:29:49;11.73;;;7.60;;
6019;SDS011;3038;51.122;6.840;2022-10-29T13:32:41;14.53;;;9.70;;
6019;SDS011;3038;51.122;6.840;2022-10-29T13:43:03;11.40;;;7.90;;
6019;SDS011;3038;51.122;6.840;2022-10-29T13:45:33;20.50;;;8.07;;
6019;SDS011;3038;51.122;6.840;2022-10-29T13:48:10;12.10;;;8.00;;
6019;SDS011;3038;51.122;6.840;2022-10-29T13:50:42;14.40;;;6.90;;
6019;SDS011;3038;51.122;6.840;2022-10-29T13:53:14;15.13;;;7.90;;
6019;SDS011;3038;51.122;6.840;2022-10-29T13:55:45;15.13;;;8.70;;
6019;SDS011;3038;51.122;6.840;2022-10-29T13:58:13;12.23;;;7.60;;
6019;SDS011;3038;51.122;6.840;2022-10-29T14:00:46;16.10;;;7.80;;
6019;SDS011;3038;51.122;6.840;2022-10-29T14:03:16;15.80;;;7.70;;
6019;SDS011;3038;51.122;6.840;2022-10-29T14:05:48;16.53;;;8.60;;
6019;SDS011;3038;51.122;6.840;2022-10-29T14:08:18;13.10;;;7.50;;
6019;SDS011;3038;51.122;6.840;2022-10-29T14:10:44;14.70;;;12.17;;
6019;SDS011;3038;51.122;6.840;2022-10-29T14:15:37;11.67;;;7.80;;
6019;SDS011;3038;51.122;6.840;2022-10-29T14:20:53;12.43;;;7.00;;
6019;SDS011;3038;51.122;6.840;2022-10-29T14:23:22;11.73;;;6.60;;
6019;SDS011;3038;51.122;6.840;2022-10-29T14:25:52;14.00;;;7.73;;
6019;SDS011;3038;51.122;6.840;2022-10-29T14:30:47;12.07;;;6.67;;
6019;SDS011;3038;51.122;6.840;2022-10-29T14:33:31;9.63;;;6.90;;
6019;SDS011;3038;51.122;6.840;2022-10-29T14:36:00;11.47;;;7.50;;
6019;SDS011;3038;51.122;6.840;2022-10-29T14:41:32;18.87;;;8.00;;
6019;SDS011;3038;51.122;6.840;2022-10-29T14:44:09;13.27;;;7.30;;
6019;SDS011;3038;51.122;6.840;2022-10-29T14:46:41;10.97;;;6.50;;
6019;SDS011;3038;51.122;6.840;2022-10-29T14:49:11;10.30;;;7.27;;
6019;SDS011;3038;51.122;6.840;2022-10-29T14:51:49;10.87;;;6.53;;
6019;SDS011;3038;51.122;6.840;2022-10-29T14:54:20;15.53;;;7.07;;
6019;SDS011;3038;51.122;6.840;2022-10-29T14:56:49;11.50;;;7.40;;
6019;SDS011;3038;51.122;6.840;2022-10-29T14:59:19;14.23;;;10.00;;
6019;SDS011;3038;51.122;6.840;2022-10-29T15:01:50;11.43;;;8.30;;
6019;SDS011;3038;51.122;6.840;2022-10-29T15:04:23;11.37;;;7.37;;
6019;SDS011;3038;51.122;6.840;2022-10-29T15:06:51;13.07;;;7.10;;
6019;SDS011;3038;51.122;6.840;2022-10-29T15:09:20;9.10;;;7.17;;
6019;SDS011;3038;51.122;6.840;2022-10-29T15:11:59;13.47;;;7.40;;
6019;SDS011;3038;51.122;6.840;2022-10-29T15:14:35;11.93;;;8.40;;
6019;SDS011;3038;51.122;6.840;2022-10-29T15:17:10;10.50;;;7.80;;
6019;SDS011;3038;51.122;6.840;2022-10-29T15:19:50;10.13;;;7.97;;
6019;SDS011;3038;51.122;6.840;2022-10-29T15:22:25;11.47;;;7.33;;
6019;SDS011;3038;51.122;6.840;2022-10-29T15:25:07;13.97;;;7.77;;
6019;SDS011;3038;51.122;6.840;2022-10-29T15:27:47;9.80;;;7.03;;
6019;SDS011;3038;51.122;6.840;2022-10-29T15:30:17;12.13;;;7.60;;
6019;SDS011;3038;51.122;6.840;2022-10-29T15:32:43;13.70;;;8.40;;
6019;SDS011;3038;51.122;6.840;2022-10-29T15:35:09;9.73;;;6.60;;
6019;SDS011;3038;51.122;6.840;2022-10-29T15:37:39;14.47;;;7.73;;
6019;SDS011;3038;51.122;6.840;2022-10-29T15:40:10;17.10;;;7.00;;
6019;SDS011;3038;51.122;6.840;2022-10-29T15:42:39;9.10;;;7.03;;
6019;SDS011;3038;51.122;6.840;2022-10-29T15:45:12;21.70;;;8.60;;
6019;SDS011;3038;51.122;6.840;2022-10-29T15:47:42;17.00;;;7.53;;
6019;SDS011;3038;51.122;6.840;2022-10-29T15:50:14;9.10;;;6.50;;
6019;SDS011;3038;51.122;6.840;2022-10-29T15:52:47;13.20;;;7.93;;
6019;SDS011;3038;51.122;6.840;2022-10-29T15:55:18;23.13;;;9.30;;
6019;SDS011;3038;51.122;6.840;2022-10-29T15:57:46;14.03;;;8.60;;
6019;SDS011;3038;51.122;6.840;2022-10-29T16:00:15;12.40;;;7.40;;
6019;SDS011;3038;51.122;6.840;2022-10-29T16:02:42;19.77;;;8.70;;
6019;SDS011;3038;51.122;6.840;2022-10-29T16:05:10;13.47;;;7.60;;
6019;SDS011;3038;51.122;6.840;2022-10-29T16:07:36;14.03;;;8.70;;
6019;SDS011;3038;51.122;6.840;2022-10-29T16:10:02;13.73;;;7.60;;
6019;SDS011;3038;51.122;6.840;2022-10-29T16:12:27;17.33;;;8.37;;
6019;SDS011;3038;51.122;6.840;2022-10-29T16:14:53;15.23;;;8.47;;
6019;SDS011;3038;51.122;6.840;2022-10-29T16:17:18;16.93;;;8.83;;
6019;SDS011;3038;51.122;6.840;2022-10-29T16:19:47;14.30;;;8.97;;
6019;SDS011;3038;51.122;6.840;2022-10-29T16:22:14;19.90;;;8.77;;
6019;SDS011;3038;51.122;6.840;2022-10-29T16:24:43;18.63;;;9.10;;
6019;SDS011;3038;51.122;6.840;2022-10-29T16:27:12;10.10;;;9.07;;
6019;SDS011;3038;51.122;6.840;2022-10-29T16:29:39;15.80;;;8.20;;
6019;SDS011;3038;51.122;6.840;2022-10-29T16:32:05;21.13;;;9.70;;
6019;SDS011;3038;51.122;6.840;2022-10-29T16:34:30;20.43;;;9.13;;
6019;SDS011;3038;51.122;6.840;2022-10-29T16:36:56;15.30;;;8.93;;
6019;SDS011;3038;51.122;6.840;2022-10-29T16:39:21;15.83;;;8.93;;
6019;SDS011;3038;51.122;6.840;2022-10-29T16:41:46;15.47;;;10.67;;
6019;SDS011;3038;51.122;6.840;2022-10-29T16:44:12;26.20;;;11.17;;
6019;SDS011;3038;51.122;6.840;2022-10-29T16:46:38;15.37;;;9.90;;
6019;SDS011;3038;51.122;6.840;2022-10-29T16:49:03;14.53;;;9.57;;
6019;SDS011;3038;51.122;6.840;2022-10-29T16:51:29;18.20;;;9.37;;
6019;SDS011;3038;51.122;6.840;2022-10-29T16:53:54;10.60;;;9.43;;
6019;SDS011;3038;51.122;6.840;2022-10-29T16:56:19;12.20;;;9.10;;
6019;SDS011;3038;51.122;6.840;2022-10-29T16:58:45;13.10;;;9.07;;
6019;SDS011;3038;51.122;6.840;2022-10-29T17:01:10;15.63;;;8.77;;
6019;SDS011;3038;51.122;6.840;2022-10-29T17:03:36;13.23;;;8.27;;
6019;SDS011;3038;51.122;6.840;2022-10-29T17:06:03;13.87;;;8.70;;
6019;SDS011;3038;51.122;6.840;2022-10-29T17:08:33;14.17;;;8.60;;
6019;SDS011;3038;51.122;6.840;2022-10-29T17:11:00;11.67;;;9.07;;
6019;SDS011;3038;51.122;6.840;2022-10-29T17:13:26;15.80;;;9.50;;
6019;SDS011;3038;51.122;6.840;2022-10-29T17:15:52;18.00;;;10.17;;
6019;SDS011;3038;51.122;6.840;2022-10-29T17:18:17;14.87;;;7.67;;
6019;SDS011;3038;51.122;6.840;2022-10-29T17:20:52;11.03;;;8.83;;
6019;SDS011;3038;51.122;6.840;2022-10-29T17:23:21;14.67;;;10.43;;
6019;SDS011;3038;51.122;6.840;2022-10-29T17:25:49;19.50;;;11.63;;
6019;SDS011;3038;51.122;6.840;2022-10-29T17:28:19;15.63;;;10.23;;
6019;SDS011;3038;51.122;6.840;2022-10-29T17:30:45;20.53;;;10.27;;
6019;SDS011;3038;51.122;6.840;2022-10-29T17:33:11;11.57;;;9.80;;
6019;SDS011;3038;51.122;6.840;2022-10-29T17:35:37;14.80;;;9.43;;
6019;SDS011;3038;51.122;6.840;2022-10-29T17:38:03;14.03;;;9.43;;
6019;SDS011;3038;51.122;6.840;2022-10-29T17:40:28;13.97;;;10.20;;